sensor_id;sensor_type;location;lat;lon;timestamp;pressure;altitude;pressure_sealevel;temperature;humidity
27425;BME280;15244;49.088;11.886;2023-09-18T00:03:44;95535.72;;;24.27;46.45
27425;BME280;15244;49.088;11.886;2023-09-18T00:08:45;95527.56;;;24.23;46.31
27425;BME280;15244;49.088;11.886;2023-09-18T00:13:47;95524.94;;;24.20;46.54
27425;BME280;15244;49.088;11.886;2023-09-18T00:18:49;95519.09;;;24.18;46.77
27425;BME280;15244;49.088;11.886;2023-09-18T00:23:54;95504.88;;;24.16;46.63
27425;BME280;15244;49.088;11.886;2023-09-18T00:28:55;95492.69;;;24.13;46.50
27425;BME280;15244;49.088;11.886;2023-09-18T00:33:57;95490.06;;;24.10;46.71
27425;BME280;15244;49.088;11.886;2023-09-18T00:38:59;95489.03;;;24.07;46.73
27425;BME280;15244;49.088;11.886;2023-09-18T00:44:00;95483.16;;;24.05;46.64
27425;BME280;15244;49.088;11.886;2023-09-18T00:49:02;95479.81;;;24.01;46.91
27425;BME280;15244;49.088;11.886;2023-09-18T00:54:04;95466.06;;;23.97;46.74
27425;BME280;15244;49.088;11.886;2023-09-18T00:59:06;95472.59;;;23.94;46.90
27425;BME280;15244;49.088;11.886;2023-09-18T01:04:08;95459.63;;;23.91;46.87
27425;BME280;15244;49.088;11.886;2023-09-18T01:09:11;95466.94;;;23.89;47.13
27425;BME280;15244;49.088;11.886;2023-09-18T01:14:36;95466.63;;;23.87;46.94
27425;BME280;15244;49.088;11.886;2023-09-18T01:19:44;95453.97;;;23.86;46.99
27425;BME280;15244;49.088;11.886;2023-09-18T01:24:48;95451.84;;;23.81;47.17
27425;BME280;15244;49.088;11.886;2023-09-18T01:29:50;95440.88;;;23.77;47.48
27425;BME280;15244;49.088;11.886;2023-09-18T01:34:55;95437.03;;;23.74;47.60
27425;BME280;15244;49.088;11.886;2023-09-18T01:39:58;95424.06;;;23.71;47.40
27425;BME280;15244;49.088;11.886;2023-09-18T01:45:02;95422.22;;;23.68;47.34
27425;BME280;15244;49.088;11.886;2023-09-18T01:50:04;95419.16;;;23.66;47.54
27425;BME280;15244;49.088;11.886;2023-09-18T01:55:09;95414.84;;;23.65;47.40
27425;BME280;15244;49.088;11.886;2023-09-18T02:00:12;95417.78;;;23.62;47.68
27425;BME280;15244;49.088;11.886;2023-09-18T02:05:15;95408.38;;;23.59;47.41
27425;BME280;15244;49.088;11.886;2023-09-18T02:10:17;95411.38;;;23.55;47.65
27425;BME280;15244;49.088;11.886;2023-09-18T02:15:19;95407.53;;;23.53;47.61
27425;BME280;15244;49.088;11.886;2023-09-18T02:20:22;95415.28;;;23.49;47.91
27425;BME280;15244;49.088;11.886;2023-09-18T02:25:24;95407.88;;;23.46;47.85
27425;BME280;15244;49.088;11.886;2023-09-18T02:30:27;95390.91;;;23.44;47.90
27425;BME280;15244;49.088;11.886;2023-09-18T02:35:32;95393.38;;;23.42;48.03
27425;BME280;15244;49.088;11.886;2023-09-18T02:40:33;95403.44;;;23.39;47.97
27425;BME280;15244;49.088;11.886;2023-09-18T02:45:35;95400.09;;;23.35;47.81
27425;BME280;15244;49.088;11.886;2023-09-18T02:50:37;95395.47;;;23.32;48.05
27425;BME280;15244;49.088;11.886;2023-09-18T02:55:38;95398.75;;;23.30;48.41
27425;BME280;15244;49.088;11.886;2023-09-18T03:00:42;95378.22;;;23.28;48.09
27425;BME280;15244;49.088;11.886;2023-09-18T03:05:45;95384.25;;;23.26;48.25
27425;BME280;15244;49.088;11.886;2023-09-18T03:10:47;95384.91;;;23.21;48.30
27425;BME280;15244;49.088;11.886;2023-09-18T03:15:48;95377.97;;;23.17;48.10
27425;BME280;15244;49.088;11.886;2023-09-18T03:20:50;95380.19;;;23.12;48.45
27425;BME280;15244;49.088;11.886;2023-09-18T03:25:52;95379.13;;;23.10;48.16
27425;BME280;15244;49.088;11.886;2023-09-18T03:30:54;95374.53;;;23.07;48.18
27425;BME280;15244;49.088;11.886;2023-09-18T03:35:58;95362.78;;;23.03;48.57
27425;BME280;15244;49.088;11.886;2023-09-18T03:41:04;95351.06;;;22.99;48.37
27425;BME280;15244;49.088;11.886;2023-09-18T03:46:06;95321.91;;;22.94;48.38
27425;BME280;15244;49.088;11.886;2023-09-18T03:51:18;95335.22;;;22.90;48.63
27425;BME280;15244;49.088;11.886;2023-09-18T03:56:21;95319.50;;;22.87;48.49
27425;BME280;15244;49.088;11.886;2023-09-18T04:01:23;95319.66;;;22.83;48.88
27425;BME280;15244;49.088;11.886;2023-09-18T04:06:35;95313.03;;;22.81;48.94
27425;BME280;15244;49.088;11.886;2023-09-18T04:11:37;95318.03;;;22.77;48.85
27425;BME280;15244;49.088;11.886;2023-09-18T04:16:39;95300.75;;;22.72;49.07
27425;BME280;15244;49.088;11.886;2023-09-18T04:21:43;95290.88;;;22.71;49.18
27425;BME280;15244;49.088;11.886;2023-09-18T04:26:44;95282.41;;;22.66;49.04
27425;BME280;15244;49.088;11.886;2023-09-18T04:31:48;95290.47;;;22.64;49.25
27425;BME280;15244;49.088;11.886;2023-09-18T04:36:50;95290.63;;;22.60;49.12
27425;BME280;15244;49.088;11.886;2023-09-18T04:41:52;95289.56;;;22.58;49.14
27425;BME280;15244;49.088;11.886;2023-09-18T04:46:53;95296.38;;;22.57;49.56
27425;BME280;15244;49.088;11.886;2023-09-18T04:51:55;95290.84;;;22.57;49.37
27425;BME280;15244;49.088;11.886;2023-09-18T04:56:57;95281.44;;;22.54;49.42
27425;BME280;15244;49.088;11.886;2023-09-18T05:01:59;95277.91;;;22.54;49.55
27425;BME280;15244;49.088;11.886;2023-09-18T05:07:01;95281.13;;;22.52;49.81
27425;BME280;15244;49.088;11.886;2023-09-18T05:12:06;95277.41;;;22.55;49.50
27425;BME280;15244;49.088;11.886;2023-09-18T05:17:15;95287.28;;;22.56;49.73
27425;BME280;15244;49.088;11.886;2023-09-18T05:22:17;95285.75;;;22.55;49.56
27425;BME280;15244;49.088;11.886;2023-09-18T05:27:19;95287.75;;;22.55;49.50
27425;BME280;15244;49.088;11.886;2023-09-18T05:32:21;95285.75;;;22.55;50.03
27425;BME280;15244;49.088;11.886;2023-09-18T05:37:22;95277.41;;;22.55;49.95
27425;BME280;15244;49.088;11.886;2023-09-18T05:42:24;95262.28;;;22.56;49.77
27425;BME280;15244;49.088;11.886;2023-09-18T05:47:26;95264.28;;;22.56;49.86
27425;BME280;15244;49.088;11.886;2023-09-18T05:52:27;95289.56;;;22.58;49.87
27425;BME280;15244;49.088;11.886;2023-09-18T05:57:29;95276.75;;;22.60;49.94
27425;BME280;15244;49.088;11.886;2023-09-18T06:02:31;95285.38;;;22.62;50.01
27425;BME280;15244;49.088;11.886;2023-09-18T06:07:33;95277.06;;;22.62;49.96
27425;BME280;15244;49.088;11.886;2023-09-18T06:12:38;95271.03;;;22.64;49.65
27425;BME280;15244;49.088;11.886;2023-09-18T06:17:41;95286.09;;;22.72;49.92
27425;BME280;15244;49.088;11.886;2023-09-18T06:22:45;95280.94;;;22.80;49.94
27425;BME280;15244;49.088;11.886;2023-09-18T06:27:47;95267.16;;;22.85;50.01
27425;BME280;15244;49.088;11.886;2023-09-18T06:32:49;95278.66;;;22.93;49.84
27425;BME280;15244;49.088;11.886;2023-09-18T06:37:50;95277.56;;;23.00;49.79
27425;BME280;15244;49.088;11.886;2023-09-18T06:42:58;95307.19;;;23.03;49.56
27425;BME280;15244;49.088;11.886;2023-09-18T06:48:00;95327.41;;;23.03;49.69
27425;BME280;15244;49.088;11.886;2023-09-18T06:53:02;95336.72;;;23.00;49.61
27425;BME280;15244;49.088;11.886;2023-09-18T06:58:03;95332.44;;;22.90;49.97
27425;BME280;15244;49.088;11.886;2023-09-18T07:03:05;95335.50;;;22.92;50.19
27425;BME280;15244;49.088;11.886;2023-09-18T07:08:08;95321.75;;;22.98;49.82
27425;BME280;15244;49.088;11.886;2023-09-18T07:13:13;95319.56;;;23.02;50.09
27425;BME280;15244;49.088;11.886;2023-09-18T07:18:15;95309.13;;;23.11;50.02
27425;BME280;15244;49.088;11.886;2023-09-18T07:23:18;95329.28;;;23.21;49.82
27425;BME280;15244;49.088;11.886;2023-09-18T07:28:20;95326.44;;;23.30;49.91
27425;BME280;15244;49.088;11.886;2023-09-18T07:33:21;95326.06;;;23.38;49.90
27425;BME280;15244;49.088;11.886;2023-09-18T07:38:24;95324.44;;;23.46;49.82
27425;BME280;15244;49.088;11.886;2023-09-18T07:43:26;95330.69;;;23.55;49.79
27425;BME280;15244;49.088;11.886;2023-09-18T07:48:28;95319.44;;;23.65;49.54
27425;BME280;15244;49.088;11.886;2023-09-18T07:53:29;95321.84;;;23.72;49.51
27425;BME280;15244;49.088;11.886;2023-09-18T07:58:31;95330.13;;;23.81;49.45
27425;BME280;15244;49.088;11.886;2023-09-18T08:03:35;95339.16;;;23.91;49.49
27425;BME280;15244;49.088;11.886;2023-09-18T08:08:36;95354.50;;;24.01;49.46
27425;BME280;15244;49.088;11.886;2023-09-18T08:13:38;95364.75;;;24.10;49.58
27425;BME280;15244;49.088;11.886;2023-09-18T08:18:40;95346.69;;;24.20;49.51
27425;BME280;15244;49.088;11.886;2023-09-18T08:23:43;95334.47;;;24.32;49.44
27425;BME280;15244;49.088;11.886;2023-09-18T08:28:44;95320.44;;;24.41;49.20
27425;BME280;15244;49.088;11.886;2023-09-18T08:33:46;95322.84;;;24.49;49.00
27425;BME280;15244;49.088;11.886;2023-09-18T08:38:47;95319.44;;;24.59;48.94
27425;BME280;15244;49.088;11.886;2023-09-18T08:43:50;95308.44;;;24.71;48.68
27425;BME280;15244;49.088;11.886;2023-09-18T08:48:52;95306.28;;;24.80;48.41
27425;BME280;15244;49.088;11.886;2023-09-18T08:53:56;95320.16;;;24.95;48.44
27425;BME280;15244;49.088;11.886;2023-09-18T08:58:58;95316.53;;;25.09;48.51
27425;BME280;15244;49.088;11.886;2023-09-18T09:04:01;95313.47;;;25.28;48.54
27425;BME280;15244;49.088;11.886;2023-09-18T09:09:03;95323.75;;;25.42;48.20
27425;BME280;15244;49.088;11.886;2023-09-18T09:14:14;95322.88;;;25.57;47.08
27425;BME280;15244;49.088;11.886;2023-09-18T09:19:31;95320.13;;;25.62;46.62
27425;BME280;15244;49.088;11.886;2023-09-18T09:24:43;95326.81;;;25.70;46.45
27425;BME280;15244;49.088;11.886;2023-09-18T09:29:58;95312.69;;;25.80;46.40
27425;BME280;15244;49.088;11.886;2023-09-18T09:34:59;95323.28;;;25.96;46.35
27425;BME280;15244;49.088;11.886;2023-09-18T09:40:04;95317.03;;;26.12;46.56
27425;BME280;15244;49.088;11.886;2023-09-18T09:45:14;95313.88;;;26.31;46.36
27425;BME280;15244;49.088;11.886;2023-09-18T09:50:19;95294.69;;;26.50;46.17
27425;BME280;15244;49.088;11.886;2023-09-18T09:55:26;95291.47;;;26.63;45.19
27425;BME280;15244;49.088;11.886;2023-09-18T10:05:55;95283.72;;;26.89;44.74
27425;BME280;15244;49.088;11.886;2023-09-18T10:11:06;95277.41;;;27.06;44.12
27425;BME280;15244;49.088;11.886;2023-09-18T10:16:11;95310.25;;;27.16;43.60
27425;BME280;15244;49.088;11.886;2023-09-18T10:21:32;95311.84;;;27.23;43.12
27425;BME280;15244;49.088;11.886;2023-09-18T10:26:41;95293.81;;;27.35;43.38
27425;BME280;15244;49.088;11.886;2023-09-18T10:31:47;95314.97;;;27.48;42.40
27425;BME280;15244;49.088;11.886;2023-09-18T10:36:51;95304.31;;;27.63;42.44
27425;BME280;15244;49.088;11.886;2023-09-18T10:41:54;95302.78;;;27.73;41.93
27425;BME280;15244;49.088;11.886;2023-09-18T10:46:57;95298.69;;;27.80;41.65
27425;BME280;15244;49.088;11.886;2023-09-18T10:52:03;95303.34;;;27.83;41.32
27425;BME280;15244;49.088;11.886;2023-09-18T10:57:05;95305.84;;;27.81;40.75
27425;BME280;15244;49.088;11.886;2023-09-18T11:02:07;95319.84;;;27.81;40.53
27425;BME280;15244;49.088;11.886;2023-09-18T11:07:19;95318.31;;;27.80;40.59
27425;BME280;15244;49.088;11.886;2023-09-18T11:12:44;95336.38;;;27.73;41.02
27425;BME280;15244;49.088;11.886;2023-09-18T11:17:58;95330.78;;;27.67;40.67
27425;BME280;15244;49.088;11.886;2023-09-18T11:28:15;95331.78;;;27.64;40.59
27425;BME280;15244;49.088;11.886;2023-09-18T11:33:38;95343.22;;;27.55;40.33
27425;BME280;15244;49.088;11.886;2023-09-18T11:38:54;95354.94;;;27.54;40.74
27425;BME280;15244;49.088;11.886;2023-09-18T11:49:19;95363.78;;;27.35;40.58
27425;BME280;15244;49.088;11.886;2023-09-18T11:54:23;95359.97;;;27.44;40.66
27425;BME280;15244;49.088;11.886;2023-09-18T11:59:46;95360.78;;;27.50;40.32
27425;BME280;15244;49.088;11.886;2023-09-18T12:04:48;95349.84;;;27.63;40.45
27425;BME280;15244;49.088;11.886;2023-09-18T12:09:50;95375.06;;;27.63;39.48
27425;BME280;15244;49.088;11.886;2023-09-18T12:14:52;95388.53;;;27.59;39.98
27425;BME280;15244;49.088;11.886;2023-09-18T12:19:54;95380.88;;;27.49;39.81
27425;BME280;15244;49.088;11.886;2023-09-18T12:25:12;95369.41;;;27.41;39.56
27425;BME280;15244;49.088;11.886;2023-09-18T12:30:19;95390.00;;;27.38;39.39
27425;BME280;15244;49.088;11.886;2023-09-18T12:35:23;95394.56;;;27.30;38.38
27425;BME280;15244;49.088;11.886;2023-09-18T12:40:28;95416.38;;;27.20;38.51
27425;BME280;15244;49.088;11.886;2023-09-18T12:45:30;95402.03;;;27.07;38.50
27425;BME280;15244;49.088;11.886;2023-09-18T12:50:32;95406.84;;;27.00;38.87
27425;BME280;15244;49.088;11.886;2023-09-18T12:55:37;95427.88;;;26.85;38.99
27425;BME280;15244;49.088;11.886;2023-09-18T13:00:45;95417.84;;;26.67;38.84
27425;BME280;15244;49.088;11.886;2023-09-18T13:05:46;95413.94;;;26.58;39.47
27425;BME280;15244;49.088;11.886;2023-09-18T13:10:50;95424.22;;;26.41;39.52
27425;BME280;15244;49.088;11.886;2023-09-18T13:15:52;95439.25;;;26.17;40.11
27425;BME280;15244;49.088;11.886;2023-09-18T13:20:57;95442.22;;;26.08;40.05
27425;BME280;15244;49.088;11.886;2023-09-18T13:26:00;95481.47;;;25.99;40.03
27425;BME280;15244;49.088;11.886;2023-09-18T13:31:05;95485.75;;;25.74;40.56
27425;BME280;15244;49.088;11.886;2023-09-18T13:36:08;95504.94;;;25.46;40.95
27425;BME280;15244;49.088;11.886;2023-09-18T13:41:09;95490.19;;;25.25;41.64
27425;BME280;15244;49.088;11.886;2023-09-18T13:46:11;95501.66;;;25.27;41.93
27425;BME280;15244;49.088;11.886;2023-09-18T13:51:13;95523.09;;;25.21;42.08
27425;BME280;15244;49.088;11.886;2023-09-18T13:56:15;95530.63;;;25.00;42.69
27425;BME280;15244;49.088;11.886;2023-09-18T14:01:17;95518.00;;;24.69;43.22
27425;BME280;15244;49.088;11.886;2023-09-18T14:06:19;95499.22;;;24.40;44.22
27425;BME280;15244;49.088;11.886;2023-09-18T14:11:21;95501.44;;;24.21;44.52
27425;BME280;15244;49.088;11.886;2023-09-18T14:16:23;95517.94;;;24.10;45.02
27425;BME280;15244;49.088;11.886;2023-09-18T14:21:27;95506.69;;;24.04;45.08
27425;BME280;15244;49.088;11.886;2023-09-18T14:26:31;95485.44;;;23.92;45.83
27425;BME280;15244;49.088;11.886;2023-09-18T14:31:33;95477.38;;;23.79;46.07
27425;BME280;15244;49.088;11.886;2023-09-18T14:36:35;95475.84;;;23.78;46.56
27425;BME280;15244;49.088;11.886;2023-09-18T14:41:40;95471.03;;;23.78;46.66
27425;BME280;15244;49.088;11.886;2023-09-18T14:46:41;95475.03;;;23.77;46.76
27425;BME280;15244;49.088;11.886;2023-09-18T14:51:44;95480.63;;;23.77;47.25
27425;BME280;15244;49.088;11.886;2023-09-18T14:56:47;95454.50;;;23.75;47.33
27425;BME280;15244;49.088;11.886;2023-09-18T15:01:48;95458.72;;;23.70;47.25
27425;BME280;15244;49.088;11.886;2023-09-18T15:06:50;95450.13;;;23.59;47.70
27425;BME280;15244;49.088;11.886;2023-09-18T15:11:54;95452.09;;;23.44;47.78
27425;BME280;15244;49.088;11.886;2023-09-18T15:16:59;95438.84;;;23.39;47.88
27425;BME280;15244;49.088;11.886;2023-09-18T15:22:00;95454.00;;;23.38;47.96
27425;BME280;15244;49.088;11.886;2023-09-18T15:27:03;95447.19;;;23.39;48.20
27425;BME280;15244;49.088;11.886;2023-09-18T15:32:04;95443.47;;;23.42;48.26
27425;BME280;15244;49.088;11.886;2023-09-18T15:37:07;95460.94;;;23.42;48.13
27425;BME280;15244;49.088;11.886;2023-09-18T15:42:12;95461.41;;;23.41;48.25
27425;BME280;15244;49.088;11.886;2023-09-18T15:47:14;95449.22;;;23.38;48.18
27425;BME280;15244;49.088;11.886;2023-09-18T15:52:16;95440.47;;;23.30;48.29
27425;BME280;15244;49.088;11.886;2023-09-18T15:57:17;95427.09;;;23.20;48.74
27425;BME280;15244;49.088;11.886;2023-09-18T16:02:19;95409.34;;;23.17;48.68
27425;BME280;15244;49.088;11.886;2023-09-18T16:07:21;95426.50;;;23.15;49.04
27425;BME280;15244;49.088;11.886;2023-09-18T16:12:23;95423.13;;;23.11;48.99
27425;BME280;15244;49.088;11.886;2023-09-18T16:17:24;95454.97;;;23.10;48.88
27425;BME280;15244;49.088;11.886;2023-09-18T16:22:26;95453.28;;;23.04;48.80
27425;BME280;15244;49.088;11.886;2023-09-18T16:27:28;95465.84;;;22.99;48.95
27425;BME280;15244;49.088;11.886;2023-09-18T16:32:30;95461.56;;;22.89;49.37
27425;BME280;15244;49.088;11.886;2023-09-18T16:37:32;95439.81;;;22.78;49.63
27425;BME280;15244;49.088;11.886;2023-09-18T16:42:34;95427.31;;;22.73;49.88
27425;BME280;15244;49.088;11.886;2023-09-18T16:47:35;95428.44;;;22.67;50.15
27425;BME280;15244;49.088;11.886;2023-09-18T16:52:37;95448.53;;;22.62;50.23
27425;BME280;15244;49.088;11.886;2023-09-18T16:57:40;95440.09;;;22.56;50.45
27425;BME280;15244;49.088;11.886;2023-09-18T17:02:44;95435.00;;;22.55;50.52
27425;BME280;15244;49.088;11.886;2023-09-18T17:07:47;95425.41;;;22.56;50.54
27425;BME280;15244;49.088;11.886;2023-09-18T17:12:50;95404.72;;;22.57;50.72
27425;BME280;15244;49.088;11.886;2023-09-18T17:17:52;95388.06;;;22.57;50.80
27425;BME280;15244;49.088;11.886;2023-09-18T17:22:59;95376.94;;;22.57;50.92
27425;BME280;15244;49.088;11.886;2023-09-18T17:28:01;95384.53;;;22.56;50.90
27425;BME280;15244;49.088;11.886;2023-09-18T17:33:06;95395.34;;;22.54;50.90
27425;BME280;15244;49.088;11.886;2023-09-18T17:38:07;95392.25;;;22.52;51.07
27425;BME280;15244;49.088;11.886;2023-09-18T17:43:09;95403.06;;;22.50;51.08
27425;BME280;15244;49.088;11.886;2023-09-18T17:48:11;95390.88;;;22.47;51.12
27425;BME280;15244;49.088;11.886;2023-09-18T17:53:14;95386.25;;;22.44;51.46
27425;BME280;15244;49.088;11.886;2023-09-18T17:58:16;95395.53;;;22.41;51.60
27425;BME280;15244;49.088;11.886;2023-09-18T18:03:18;95410.34;;;22.38;51.45
27425;BME280;15244;49.088;11.886;2023-09-18T18:08:21;95418.84;;;22.35;51.73
27425;BME280;15244;49.088;11.886;2023-09-18T18:13:23;95422.56;;;22.32;51.64
27425;BME280;15244;49.088;11.886;2023-09-18T18:18:25;95421.03;;;22.31;51.53
27425;BME280;15244;49.088;11.886;2023-09-18T18:23:27;95413.06;;;22.23;51.49
27425;BME280;15244;49.088;11.886;2023-09-18T18:28:29;95411.63;;;22.19;51.83
27425;BME280;15244;49.088;11.886;2023-09-18T18:33:31;95417.81;;;22.14;51.89
27425;BME280;15244;49.088;11.886;2023-09-18T18:38:33;95425.22;;;22.07;51.49
27425;BME280;15244;49.088;11.886;2023-09-18T18:43:35;95431.41;;;22.02;51.99
27425;BME280;15244;49.088;11.886;2023-09-18T18:48:37;95419.72;;;21.98;51.92
27425;BME280;15244;49.088;11.886;2023-09-18T18:53:39;95428.66;;;21.93;51.69
27425;BME280;15244;49.088;11.886;2023-09-18T18:58:44;95437.00;;;21.84;51.60
27425;BME280;15244;49.088;11.886;2023-09-18T19:03:47;95430.06;;;21.79;52.06
27425;BME280;15244;49.088;11.886;2023-09-18T19:08:49;95421.91;;;21.76;52.39
27425;BME280;15244;49.088;11.886;2023-09-18T19:13:51;95420.84;;;21.73;52.33
27425;BME280;15244;49.088;11.886;2023-09-18T19:18:52;95422.22;;;21.69;52.35
27425;BME280;15244;49.088;11.886;2023-09-18T19:23:54;95425.63;;;21.63;52.66
27425;BME280;15244;49.088;11.886;2023-09-18T19:28:56;95415.78;;;21.62;52.55
27425;BME280;15244;49.088;11.886;2023-09-18T19:33:58;95412.38;;;21.58;52.63
27425;BME280;15244;49.088;11.886;2023-09-18T19:39:05;95406.06;;;21.58;52.76
27425;BME280;15244;49.088;11.886;2023-09-18T19:44:11;95410.84;;;21.57;52.73
27425;BME280;15244;49.088;11.886;2023-09-18T19:49:13;95413.75;;;21.54;53.01
27425;BME280;15244;49.088;11.886;2023-09-18T19:54:14;95398.34;;;21.53;52.58
27425;BME280;15244;49.088;11.886;2023-09-18T19:59:17;95394.50;;;21.50;52.87
27425;BME280;15244;49.088;11.886;2023-09-18T20:04:19;95396.97;;;21.48;52.59
27425;BME280;15244;49.088;11.886;2023-09-18T20:09:22;95400.19;;;21.47;53.02
27425;BME280;15244;49.088;11.886;2023-09-18T20:14:24;95394.38;;;21.45;53.03
27425;BME280;15244;49.088;11.886;2023-09-18T20:19:32;95401.13;;;21.43;52.88
27425;BME280;15244;49.088;11.886;2023-09-18T20:24:35;95401.13;;;21.43;52.94
27425;BME280;15244;49.088;11.886;2023-09-18T20:29:38;95410.06;;;21.38;52.71
27425;BME280;15244;49.088;11.886;2023-09-18T20:34:40;95395.72;;;21.31;53.07
27425;BME280;15244;49.088;11.886;2023-09-18T20:39:42;95413.41;;;21.24;52.90
27425;BME280;15244;49.088;11.886;2023-09-18T20:44:43;95402.16;;;21.18;52.86
27425;BME280;15244;49.088;11.886;2023-09-18T20:49:45;95390.63;;;21.11;53.62
27425;BME280;15244;49.088;11.886;2023-09-18T20:54:50;95398.63;;;21.09;52.88
27425;BME280;15244;49.088;11.886;2023-09-18T20:59:52;95396.94;;;21.02;53.21
27425;BME280;15244;49.088;11.886;2023-09-18T21:04:55;95403.84;;;20.97;53.08
27425;BME280;15244;49.088;11.886;2023-09-18T21:09:59;95411.53;;;20.93;53.47
27425;BME280;15244;49.088;11.886;2023-09-18T21:15:00;95421.84;;;20.93;53.34
27425;BME280;15244;49.088;11.886;2023-09-18T21:20:04;95427.38;;;20.93;53.37
27425;BME280;15244;49.088;11.886;2023-09-18T21:25:06;95423.09;;;20.92;53.64
27425;BME280;15244;49.088;11.886;2023-09-18T21:30:08;95421.22;;;20.89;53.54
27425;BME280;15244;49.088;11.886;2023-09-18T21:35:10;95436.75;;;20.86;53.47
27425;BME280;15244;49.088;11.886;2023-09-18T21:40:12;95422.28;;;20.82;53.28
27425;BME280;15244;49.088;11.886;2023-09-18T21:45:14;95433.81;;;20.81;53.48
27425;BME280;15244;49.088;11.886;2023-09-18T21:50:17;95418.13;;;20.77;53.30
27425;BME280;15244;49.088;11.886;2023-09-18T21:55:20;95417.19;;;20.71;53.28
27425;BME280;15244;49.088;11.886;2023-09-18T22:00:22;95400.38;;;20.66;53.52
27425;BME280;15244;49.088;11.886;2023-09-18T22:05:28;95396.69;;;20.60;53.39
27425;BME280;15244;49.088;11.886;2023-09-18T22:10:30;95397.13;;;20.58;53.14
27425;BME280;15244;49.088;11.886;2023-09-18T22:15:33;95400.81;;;20.55;53.50
27425;BME280;15244;49.088;11.886;2023-09-18T22:20:35;95398.94;;;20.52;53.39
27425;BME280;15244;49.088;11.886;2023-09-18T22:25:36;95399.53;;;20.47;53.26
27425;BME280;15244;49.088;11.886;2023-09-18T22:30:41;95401.34;;;20.41;53.73
27425;BME280;15244;49.088;11.886;2023-09-18T22:35:45;95394.72;;;20.38;53.67
27425;BME280;15244;49.088;11.886;2023-09-18T22:57:11;95402.53;;;20.21;54.02
27425;BME280;15244;49.088;11.886;2023-09-18T23:02:16;95403.44;;;20.18;53.98
27425;BME280;15244;49.088;11.886;2023-09-18T23:07:18;95413.09;;;20.13;54.46
27425;BME280;15244;49.088;11.886;2023-09-18T23:12:22;95404.47;;;20.11;54.38
27425;BME280;15244;49.088;11.886;2023-09-18T23:17:23;95400.28;;;20.07;54.27
27425;BME280;15244;49.088;11.886;2023-09-18T23:22:27;95404.28;;;20.06;54.43
27425;BME280;15244;49.088;11.886;2023-09-18T23:27:30;95404.16;;;20.09;54.39
27425;BME280;15244;49.088;11.886;2023-09-18T23:32:32;95417.06;;;20.12;54.66
27425;BME280;15244;49.088;11.886;2023-09-18T23:37:33;95416.19;;;20.16;54.44
27425;BME280;15244;49.088;11.886;2023-09-18T23:42:39;95415.59;;;20.21;54.70
27425;BME280;15244;49.088;11.886;2023-09-18T23:47:42;95420.34;;;20.20;54.72
27425;BME280;15244;49.088;11.886;2023-09-18T23:52:48;95416.94;;;20.16;54.64
27425;BME280;15244;49.088;11.886;2023-09-18T23:57:53;95429.22;;;20.15;54.49
